NTB weather

Notodden Airport
Notodden, Telemark, Norway

Public forecast

Using degrees Celsius for public forecast. Weather courtesy of forecast.io.

METAR (pilot weather report)

Retrieved 2019/03/26 15:50 UTC (23 minutes ago):

ENNO 261550Z 10005KT CAVOK 07/M01 Q1019

TAF (pilot weather forecast)

Closest forecast is Sandefjord Airport, Torp, 39.3 nm (72.7 km) SE. Retrieved 2019/03/26 12:00 UTC (4 hours ago):

TAF ENTO 261100Z 2612/2712 02010KT CAVOK TEMPO 2612/2618 21010KT BECMG 2618/2620 32007KT